Time;durP1;ratioP1;P1;durP2;ratioP2;P2;SDS_P1;SDS_P2;PMS_P1;PMS_P2;Temp;Humidity;BMP_temperature;BMP_pressure;BME280_temperature;BME280_humidity;BME280_pressure;Samples;Min_cycle;Max_cycle;Signal;HPM_P1;HPM_P2
2022/04/09 00:00:58;;;;;;;7.97;5.30;;;3.80;99.90;;;;;;5131408;27;20361;-83
2022/04/09 00:03:23;;;;;;;7.47;5.10;;;3.80;99.90;;;;;;5131100;27;20489;-83
2022/04/09 00:05:49;;;;;;;6.72;5.10;;;3.70;99.90;;;;;;5132288;27;20826;-83
2022/04/09 00:08:15;;;;;;;7.95;5.50;;;3.70;99.90;;;;;;5113103;27;20913;-83
2022/04/09 00:10:41;;;;;;;5.53;4.70;;;3.70;99.90;;;;;;5130257;27;20881;-83
2022/04/09 00:13:06;;;;;;;8.00;5.20;;;3.80;99.90;;;;;;5130401;27;20513;-83
2022/04/09 00:15:32;;;;;;;8.13;5.40;;;3.70;99.90;;;;;;5129830;27;20881;-82
2022/04/09 00:17:57;;;;;;;7.10;5.37;;;3.70;99.90;;;;;;5131018;27;20422;-83
2022/04/09 00:20:23;;;;;;;9.47;5.07;;;3.70;99.90;;;;;;5130565;27;20918;-83
2022/04/09 00:22:49;;;;;;;7.70;5.05;;;3.70;99.90;;;;;;5130889;27;20372;-83
2022/04/09 00:25:21;;;;;;;8.45;5.18;;;3.70;99.90;;;;;;5111423;27;20759;-82
2022/04/09 00:27:47;;;;;;;7.35;4.90;;;3.70;99.90;;;;;;5130854;27;20376;-83
2022/04/09 00:30:13;;;;;;;9.10;5.38;;;3.70;99.90;;;;;;5112361;27;20445;-83
2022/04/09 00:32:39;;;;;;;9.68;4.70;;;3.70;99.90;;;;;;5111849;27;20906;-83
2022/04/09 00:35:05;;;;;;;8.40;4.90;;;3.70;99.90;;;;;;5130714;27;20369;-83
2022/04/09 00:37:32;;;;;;;10.07;4.78;;;3.60;99.90;;;;;;5130666;27;20748;-83
2022/04/09 00:39:57;;;;;;;7.20;4.47;;;3.60;99.90;;;;;;5113449;27;20366;-82
2022/04/09 00:42:23;;;;;;;9.30;4.40;;;3.60;99.90;;;;;;5130936;27;20376;-83
2022/04/09 00:44:50;;;;;;;9.33;4.43;;;3.80;99.90;;;;;;5132452;27;20440;-83
2022/04/09 00:47:16;;;;;;;7.90;4.75;;;3.70;99.90;;;;;;5112729;27;20377;-83
2022/04/09 00:49:42;;;;;;;5.32;3.97;;;3.60;99.90;;;;;;5112441;27;20441;-83
2022/04/09 00:52:09;;;;;;;7.63;4.50;;;3.70;99.90;;;;;;5131398;27;20400;-83
2022/04/09 00:54:38;;;;;;;6.18;4.32;;;3.70;99.90;;;;;;5111397;27;20377;-83
2022/04/09 00:57:05;;;;;;;6.27;4.17;;;3.70;99.90;;;;;;5111509;27;20385;-83
2022/04/09 00:59:36;;;;;;;7.90;4.60;;;3.80;99.90;;;;;;5130779;27;20365;-83
2022/04/09 01:02:02;;;;;;;6.85;4.28;;;3.70;99.90;;;;;;5130451;27;20444;-83
2022/04/09 01:04:30;;;;;;;9.27;4.80;;;3.70;99.90;;;;;;5129974;27;20373;-82
2022/04/09 01:06:56;;;;;;;10.23;4.43;;;3.80;99.90;;;;;;5111448;27;20369;-83
2022/04/09 01:09:22;;;;;;;7.70;4.47;;;3.70;99.90;;;;;;5112218;27;20392;-83
2022/04/09 01:11:49;;;;;;;7.55;4.15;;;3.80;99.90;;;;;;5129934;27;20799;-83
2022/04/09 01:14:14;;;;;;;7.50;4.60;;;3.70;99.90;;;;;;5130357;27;20401;-82
2022/04/09 01:16:40;;;;;;;10.13;4.53;;;3.80;99.90;;;;;;5111709;28;20489;-83
2022/04/09 01:19:06;;;;;;;9.02;4.47;;;3.70;99.90;;;;;;5130437;28;20365;-83
2022/04/09 01:21:32;;;;;;;7.05;4.28;;;3.60;99.90;;;;;;5131113;27;20357;-83
2022/04/09 01:23:59;;;;;;;7.73;4.83;;;3.60;99.90;;;;;;5131066;27;20365;-83
2022/04/09 01:26:24;;;;;;;7.75;4.35;;;3.60;99.90;;;;;;5111025;27;20393;-83
2022/04/09 01:28:50;;;;;;;7.07;4.28;;;3.70;99.90;;;;;;5135689;27;20372;-83
2022/04/09 01:31:16;;;;;;;7.70;4.27;;;3.70;99.90;;;;;;5134566;27;20491;-83
2022/04/09 01:33:43;;;;;;;8.23;4.80;;;3.70;99.90;;;;;;5115776;27;20369;-83
2022/04/09 01:36:09;;;;;;;10.23;4.97;;;3.70;99.90;;;;;;5133586;27;21053;-83
2022/04/09 01:38:35;;;;;;;9.33;4.63;;;3.60;99.90;;;;;;5115752;27;20369;-83
2022/04/09 01:41:01;;;;;;;7.83;4.63;;;3.60;99.90;;;;;;5133722;27;20432;-82
2022/04/09 01:43:27;;;;;;;8.05;4.57;;;3.60;99.90;;;;;;5115054;27;20396;-83
2022/04/09 01:45:53;;;;;;;7.82;4.60;;;3.60;99.90;;;;;;5115405;27;20368;-83
2022/04/09 01:48:19;;;;;;;8.63;4.70;;;3.60;99.90;;;;;;5135031;27;20400;-83
2022/04/09 01:50:45;;;;;;;7.57;4.57;;;3.50;99.90;;;;;;5134261;27;20361;-82
2022/04/09 01:53:11;;;;;;;6.72;4.35;;;3.50;99.90;;;;;;5134434;27;20369;-82
2022/04/09 01:55:37;;;;;;;7.87;5.00;;;3.50;99.90;;;;;;5133918;27;20376;-82
2022/04/09 01:58:03;;;;;;;11.35;5.40;;;3.50;99.90;;;;;;5115436;27;20457;-83
2022/04/09 02:00:32;;;;;;;9.60;5.05;;;3.60;99.90;;;;;;5134678;27;20897;-83
2022/04/09 02:02:58;;;;;;;8.90;4.30;;;3.60;99.90;;;;;;5134620;27;20380;-82
2022/04/09 02:05:24;;;;;;;13.10;4.80;;;3.60;99.90;;;;;;5116047;27;20373;-83
2022/04/09 02:07:51;;;;;;;10.57;5.20;;;3.60;99.90;;;;;;5115421;27;20727;-82
2022/04/09 02:10:18;;;;;;;10.25;5.00;;;3.60;99.90;;;;;;5116235;27;20413;-82
2022/04/09 02:12:44;;;;;;;11.38;4.72;;;3.60;99.90;;;;;;5115933;27;20400;-83
2022/04/09 02:15:12;;;;;;;11.48;4.80;;;3.50;99.90;;;;;;5116687;27;20377;-83
2022/04/09 02:17:39;;;;;;;10.30;4.95;;;3.50;99.90;;;;;;5133599;27;20425;-82
2022/04/09 02:20:07;;;;;;;8.27;4.70;;;3.50;99.90;;;;;;5133758;27;20462;-83
2022/04/09 02:22:38;;;;;;;10.75;5.35;;;3.50;99.90;;;;;;5115302;27;20413;-83
2022/04/09 02:25:09;;;;;;;8.93;4.60;;;3.40;99.90;;;;;;5132976;27;20463;-82
2022/04/09 02:27:34;;;;;;;8.35;5.15;;;3.30;99.90;;;;;;5133393;27;20403;-82
2022/04/09 02:30:01;;;;;;;10.27;5.40;;;3.40;99.90;;;;;;5133403;27;20757;-83
2022/04/09 02:32:27;;;;;;;11.63;5.68;;;3.30;99.90;;;;;;5133109;27;20392;-83
2022/04/09 02:34:53;;;;;;;9.60;5.40;;;3.30;99.90;;;;;;5114123;27;20369;-82
2022/04/09 02:37:22;;;;;;;9.02;4.93;;;3.30;99.90;;;;;;5114779;27;20369;-82
2022/04/09 02:39:48;;;;;;;9.30;5.13;;;3.20;99.90;;;;;;5124717;27;20377;-83
2022/04/09 02:42:14;;;;;;;11.98;5.68;;;3.20;99.90;;;;;;5132199;27;20960;-83
2022/04/09 02:44:41;;;;;;;10.48;5.63;;;3.10;99.90;;;;;;5132288;27;21000;-82
2022/04/09 02:47:07;;;;;;;8.55;5.75;;;3.00;99.90;;;;;;5133555;27;20395;-82
2022/04/09 02:49:32;;;;;;;12.10;5.50;;;3.00;99.90;;;;;;5133238;27;20460;-83
2022/04/09 02:51:58;;;;;;;10.05;5.60;;;3.00;99.90;;;;;;5132975;27;20396;-82
2022/04/09 02:54:24;;;;;;;7.88;5.40;;;2.90;99.90;;;;;;5113706;27;20384;-83
2022/04/09 02:56:50;;;;;;;10.75;5.68;;;2.80;99.90;;;;;;5131416;27;20389;-82
2022/04/09 02:59:15;;;;;;;9.10;5.70;;;2.80;99.90;;;;;;5132987;27;20373;-83
2022/04/09 03:01:45;;;;;;;9.73;5.75;;;2.70;99.90;;;;;;5133469;27;20376;-83
2022/04/09 03:04:11;;;;;;;10.98;6.07;;;2.70;99.90;;;;;;5115378;27;20372;-82
2022/04/09 03:06:36;;;;;;;9.63;6.15;;;2.70;99.90;;;;;;5113370;27;20382;-83
2022/04/09 03:09:03;;;;;;;10.43;5.63;;;2.70;99.90;;;;;;5133124;27;20427;-83
2022/04/09 03:11:28;;;;;;;11.13;6.40;;;2.60;99.90;;;;;;5113652;27;20408;-83
2022/04/09 03:13:54;;;;;;;9.23;6.13;;;2.60;99.90;;;;;;5133405;27;20369;-82
2022/04/09 03:16:20;;;;;;;11.03;5.90;;;2.60;99.90;;;;;;5114157;27;20723;-83
2022/04/09 03:18:45;;;;;;;10.47;6.17;;;2.50;99.90;;;;;;5133720;27;20458;-83
2022/04/09 03:21:11;;;;;;;11.85;6.25;;;2.50;99.90;;;;;;5132835;27;20485;-82
2022/04/09 03:23:36;;;;;;;12.20;7.38;;;2.40;99.90;;;;;;5132783;27;20380;-83
2022/04/09 03:26:02;;;;;;;11.20;7.17;;;2.50;99.90;;;;;;5132580;27;20893;-82
2022/04/09 03:28:28;;;;;;;11.40;7.10;;;2.40;99.90;;;;;;5131246;27;20395;-83
2022/04/09 03:30:53;;;;;;;10.90;6.83;;;2.40;99.90;;;;;;5131589;27;20445;-82
2022/04/09 03:33:19;;;;;;;15.27;7.35;;;2.40;99.90;;;;;;5113562;27;20408;-82
2022/04/09 03:35:46;;;;;;;11.65;6.95;;;2.30;99.90;;;;;;5112736;27;20408;-83
2022/04/09 03:38:12;;;;;;;11.52;6.85;;;2.30;99.90;;;;;;5112764;27;20381;-82
2022/04/09 03:40:38;;;;;;;10.40;7.00;;;2.30;99.90;;;;;;5131405;27;20392;-82
2022/04/09 03:43:04;;;;;;;11.40;7.07;;;2.30;99.90;;;;;;5131036;27;20474;-83
2022/04/09 03:45:30;;;;;;;11.00;6.85;;;2.20;99.90;;;;;;5112803;27;20476;-82
2022/04/09 03:47:56;;;;;;;14.38;6.85;;;2.20;99.90;;;;;;5131704;27;20377;-83
2022/04/09 03:50:21;;;;;;;13.27;7.07;;;2.30;99.90;;;;;;5130408;27;20704;-83
2022/04/09 03:52:48;;;;;;;11.55;7.35;;;2.20;99.90;;;;;;5131141;27;20763;-82
2022/04/09 03:55:14;;;;;;;11.32;7.07;;;2.20;99.90;;;;;;5112465;27;20389;-83
2022/04/09 03:57:40;;;;;;;13.38;7.10;;;2.20;99.90;;;;;;5112589;27;20381;-83
2022/04/09 04:00:08;;;;;;;9.70;6.55;;;2.20;99.90;;;;;;5131299;27;20369;-83
2022/04/09 04:02:34;;;;;;;12.05;7.10;;;2.10;99.90;;;;;;5130830;27;20370;-83
2022/04/09 04:05:02;;;;;;;13.27;7.20;;;2.10;99.90;;;;;;5112065;27;20407;-84
2022/04/09 04:07:30;;;;;;;14.52;7.70;;;2.10;99.90;;;;;;5112662;27;20472;-83
2022/04/09 04:09:56;;;;;;;14.85;7.50;;;1.30;99.90;;;;;;5112466;27;20731;-82
2022/04/09 04:12:21;;;;;;;13.73;7.97;;;2.00;99.90;;;;;;5131089;27;20392;-82
2022/04/09 04:14:47;;;;;;;14.93;7.53;;;2.10;99.90;;;;;;5129927;27;20887;-84
2022/04/09 04:17:12;;;;;;;15.77;8.07;;;2.60;99.90;;;;;;5130859;27;20369;-82
2022/04/09 04:19:39;;;;;;;11.98;7.75;;;2.10;99.90;;;;;;5112301;27;20756;-83
2022/04/09 04:22:07;;;;;;;18.92;8.70;;;2.10;99.90;;;;;;5130536;27;20878;-82
2022/04/09 04:24:37;;;;;;;14.80;8.07;;;2.00;99.90;;;;;;5130331;27;20368;-83
2022/04/09 04:27:04;;;;;;;16.58;8.27;;;2.10;99.90;;;;;;5121351;27;20700;-82
2022/04/09 04:29:29;;;;;;;12.35;8.07;;;2.00;99.90;;;;;;5112988;27;20404;-83
2022/04/09 04:31:55;;;;;;;14.45;8.00;;;2.10;99.90;;;;;;5130514;27;20385;-83
2022/04/09 04:34:20;;;;;;;16.33;8.50;;;2.00;99.90;;;;;;5130079;27;20381;-83
2022/04/09 04:36:46;;;;;;;16.60;8.07;;;2.10;99.90;;;;;;5111590;27;20384;-83
2022/04/09 04:39:12;;;;;;;14.40;8.10;;;2.10;99.90;;;;;;5130206;27;20456;-82
2022/04/09 04:41:38;;;;;;;14.47;8.60;;;2.10;99.90;;;;;;5131065;27;20420;-83
2022/04/09 04:44:04;;;;;;;18.93;8.10;;;2.10;99.90;;;;;;5130209;27;20846;-83
2022/04/09 04:46:29;;;;;;;14.97;8.10;;;2.20;99.90;;;;;;5112641;27;20421;-83
2022/04/09 04:48:55;;;;;;;15.17;7.50;;;2.10;99.90;;;;;;5130406;27;20468;-83
2022/04/09 04:51:21;;;;;;;16.83;8.27;;;2.20;99.90;;;;;;5130455;27;20405;-82
2022/04/09 04:53:46;;;;;;;14.75;7.82;;;2.20;99.90;;;;;;5112063;27;20452;-83
2022/04/09 04:56:13;;;;;;;13.47;7.43;;;2.30;99.90;;;;;;5130064;27;20365;-82
2022/04/09 04:58:38;;;;;;;11.52;7.35;;;2.30;99.90;;;;;;5111570;27;20423;-82
2022/04/09 05:01:05;;;;;;;14.57;7.47;;;2.30;99.90;;;;;;5130116;27;20373;-83
2022/04/09 05:03:31;;;;;;;14.57;7.85;;;2.30;99.90;;;;;;5107140;27;20611;-83
2022/04/09 05:05:57;;;;;;;18.38;7.47;;;2.40;99.90;;;;;;5079434;28;20386;-83
2022/04/09 05:08:23;;;;;;;13.75;6.82;;;2.40;99.90;;;;;;5090937;28;20362;-83
2022/04/09 05:10:48;;;;;;;14.37;6.53;;;2.50;99.90;;;;;;5095682;28;20395;-83
2022/04/09 05:13:16;;;;;;;11.80;5.93;;;2.70;99.90;;;;;;5070193;28;20651;-83
2022/04/09 05:15:41;;;;;;;12.00;5.90;;;2.90;99.90;;;;;;5089057;28;20396;-83
2022/04/09 05:18:07;;;;;;;11.43;5.37;;;3.10;99.90;;;;;;5088922;28;20805;-82
2022/04/09 05:20:32;;;;;;;13.40;5.93;;;3.30;99.90;;;;;;5070785;28;20385;-83
2022/04/09 05:22:58;;;;;;;10.88;5.30;;;3.30;99.90;;;;;;5108479;28;20393;-83
2022/04/09 05:25:25;;;;;;;9.95;4.97;;;3.40;99.90;;;;;;5108592;28;20366;-83
2022/04/09 05:27:51;;;;;;;9.98;4.65;;;3.30;99.90;;;;;;5090625;28;20741;-83
2022/04/09 05:30:17;;;;;;;12.82;5.82;;;3.30;99.90;;;;;;5096493;28;20487;-82
2022/04/09 05:32:43;;;;;;;14.03;5.57;;;3.40;99.90;;;;;;5088487;28;20395;-82
2022/04/09 05:35:09;;;;;;;12.27;5.30;;;3.50;99.90;;;;;;5088557;28;20748;-82
2022/04/09 05:37:35;;;;;;;11.07;5.68;;;3.60;99.90;;;;;;5109604;28;20389;-82
2022/04/09 05:40:02;;;;;;;11.05;4.80;;;3.80;99.90;;;;;;5099696;28;20427;-81
2022/04/09 05:42:28;;;;;;;9.68;5.38;;;3.70;99.90;;;;;;5088650;28;20376;-82
2022/04/09 05:44:54;;;;;;;9.52;5.20;;;3.70;99.90;;;;;;5070148;28;20407;-82
2022/04/09 05:47:20;;;;;;;9.57;5.05;;;3.80;99.90;;;;;;5070506;28;20372;-83
2022/04/09 05:49:46;;;;;;;11.88;4.85;;;3.80;99.90;;;;;;5105965;28;20790;-82
2022/04/09 05:52:12;;;;;;;11.98;5.32;;;3.90;99.90;;;;;;5111501;28;20472;-82
2022/04/09 05:54:38;;;;;;;10.25;5.10;;;3.90;99.90;;;;;;5090955;28;20872;-83
2022/04/09 05:57:06;;;;;;;11.02;4.45;;;4.00;99.90;;;;;;5109992;28;20710;-84
2022/04/09 05:59:31;;;;;;;9.33;4.93;;;4.10;99.90;;;;;;5076228;28;20399;-82
2022/04/09 06:01:57;;;;;;;10.02;5.43;;;4.20;99.90;;;;;;5089968;28;20372;-83
2022/04/09 06:04:23;;;;;;;11.57;5.15;;;4.10;99.90;;;;;;5070949;28;20754;-82
2022/04/09 06:06:50;;;;;;;9.85;4.93;;;4.30;99.90;;;;;;5072163;28;20383;-82
2022/04/09 06:09:16;;;;;;;9.52;4.93;;;4.40;99.90;;;;;;5105075;28;21589;-84
2022/04/09 06:11:42;;;;;;;11.10;5.13;;;4.50;99.90;;;;;;5089276;28;20461;-83
2022/04/09 06:14:08;;;;;;;10.07;4.85;;;4.60;99.90;;;;;;5090741;28;20376;-82
2022/04/09 06:16:38;;;;;;;9.47;4.87;;;4.80;99.90;;;;;;5074568;28;20376;-83
2022/04/09 06:19:04;;;;;;;10.65;4.78;;;5.00;99.90;;;;;;5108211;28;20692;-82
2022/04/09 06:21:30;;;;;;;8.48;4.07;;;5.20;99.90;;;;;;5095147;28;20857;-83
2022/04/09 06:23:58;;;;;;;9.00;4.37;;;5.40;99.90;;;;;;5095105;28;20371;-81
2022/04/09 06:26:24;;;;;;;9.23;3.97;;;5.60;99.90;;;;;;5113318;28;20475;-83
2022/04/09 06:28:50;;;;;;;11.07;5.23;;;5.60;99.90;;;;;;5099226;28;20802;-83
2022/04/09 06:31:16;;;;;;;10.60;4.68;;;5.70;99.90;;;;;;5091149;28;20477;-82
2022/04/09 06:33:41;;;;;;;12.47;4.17;;;5.80;99.90;;;;;;5099180;28;20394;-82
2022/04/09 06:36:08;;;;;;;11.70;4.70;;;5.80;99.90;;;;;;5114274;28;20375;-83
2022/04/09 06:38:34;;;;;;;9.55;4.10;;;6.00;99.90;;;;;;5115026;28;20380;-82
2022/04/09 06:40:59;;;;;;;8.32;4.43;;;6.20;99.90;;;;;;5105749;27;20447;-83
2022/04/09 06:43:26;;;;;;;8.88;4.60;;;6.40;99.90;;;;;;5129806;27;20477;-83
2022/04/09 06:45:52;;;;;;;10.90;4.40;;;6.50;99.90;;;;;;5114116;27;20384;-83
2022/04/09 06:48:18;;;;;;;8.83;4.23;;;6.60;99.90;;;;;;5110023;27;20370;-83
2022/04/09 06:50:44;;;;;;;10.57;4.50;;;6.60;99.90;;;;;;5131994;27;20369;-83
2022/04/09 06:53:09;;;;;;;10.33;4.97;;;6.60;99.90;;;;;;5130623;27;21863;-83
2022/04/09 06:55:36;;;;;;;9.37;4.70;;;6.70;99.90;;;;;;5108584;27;20381;-83
2022/04/09 06:58:02;;;;;;;9.18;4.25;;;6.70;99.90;;;;;;5133065;27;20372;-83
2022/04/09 07:00:29;;;;;;;10.53;4.50;;;6.60;99.90;;;;;;5133049;27;20384;-83
2022/04/09 07:02:55;;;;;;;9.40;4.35;;;6.60;99.90;;;;;;5112972;27;20381;-83
2022/04/09 07:05:50;;;;;;;11.38;4.63;;;6.60;99.90;;;;;;5133001;27;20368;-83
2022/04/09 07:08:16;;;;;;;10.67;4.63;;;6.70;99.90;;;;;;5089055;27;20390;-83
2022/04/09 07:10:51;;;;;;;11.00;4.73;;;6.70;99.90;;;;;;5124323;27;20382;-84
2022/04/09 07:13:16;;;;;;;12.63;4.97;;;6.80;99.90;;;;;;5112178;28;20555;-83
2022/04/09 07:15:43;;;;;;;12.17;4.27;;;7.20;99.90;;;;;;5113572;28;20469;-83
2022/04/09 07:18:08;;;;;;;9.35;4.38;;;7.20;99.90;;;;;;5111465;28;20394;-83
2022/04/09 07:20:36;;;;;;;10.20;4.50;;;7.30;99.90;;;;;;5094489;28;20464;-83
2022/04/09 07:23:02;;;;;;;7.93;4.37;;;7.30;99.90;;;;;;5093659;28;20383;-82
2022/04/09 07:25:29;;;;;;;11.65;4.70;;;7.30;99.90;;;;;;5092373;28;20378;-83
2022/04/09 07:27:55;;;;;;;8.25;3.80;;;7.30;99.90;;;;;;5080902;28;20373;-83
2022/04/09 07:30:21;;;;;;;9.77;4.40;;;7.40;99.90;;;;;;5107052;28;20412;-83
2022/04/09 07:32:48;;;;;;;11.60;4.33;;;7.50;99.90;;;;;;5092449;28;20462;-83
2022/04/09 07:35:15;;;;;;;10.95;4.45;;;7.50;99.90;;;;;;5074399;28;20433;-83
2022/04/09 07:37:43;;;;;;;9.70;4.28;;;7.60;99.90;;;;;;5106737;28;20394;-83
2022/04/09 07:40:10;;;;;;;8.90;4.20;;;7.80;99.90;;;;;;5093933;28;20388;-83
2022/04/09 07:42:41;;;;;;;9.15;4.32;;;7.90;99.90;;;;;;5093392;28;20477;-83
2022/04/09 07:45:08;;;;;;;7.53;3.92;;;7.80;99.90;;;;;;5112274;28;20895;-83
2022/04/09 07:47:34;;;;;;;9.88;4.78;;;8.10;99.90;;;;;;5096261;28;20412;-84
2022/04/09 07:50:01;;;;;;;11.50;4.43;;;8.20;99.90;;;;;;5109840;28;20385;-83
2022/04/09 07:52:27;;;;;;;9.07;4.20;;;8.10;99.90;;;;;;5077925;28;20405;-84
2022/04/09 07:54:56;;;;;;;10.25;4.03;;;8.10;99.90;;;;;;5099020;28;20385;-83
2022/04/09 07:57:23;;;;;;;9.82;4.63;;;8.20;99.90;;;;;;5074232;28;20758;-83
2022/04/09 07:59:53;;;;;;;11.13;3.97;;;8.20;99.90;;;;;;5093784;28;20889;-83
2022/04/09 08:02:19;;;;;;;11.53;4.40;;;8.10;99.90;;;;;;5113540;28;20386;-83
2022/04/09 08:04:45;;;;;;;10.30;4.55;;;8.60;99.90;;;;;;5102664;28;20404;-83
2022/04/09 08:07:14;;;;;;;10.10;4.50;;;8.60;99.90;;;;;;5111318;28;20374;-83
2022/04/09 08:09:40;;;;;;;11.53;4.10;;;8.90;99.90;;;;;;5093351;28;20378;-83
2022/04/09 08:12:09;;;;;;;9.38;3.85;;;8.70;99.90;;;;;;5087025;28;20750;-83
2022/04/09 08:14:37;;;;;;;12.47;4.37;;;8.60;99.90;;;;;;5075505;28;20478;-83
2022/04/09 08:17:03;;;;;;;12.15;4.13;;;8.60;99.90;;;;;;5090764;28;20384;-84
2022/04/09 08:19:29;;;;;;;9.02;3.75;;;8.20;99.90;;;;;;5073107;28;20383;-82
2022/04/09 08:21:56;;;;;;;9.90;3.55;;;8.70;99.90;;;;;;5073804;28;20396;-83
2022/04/09 08:24:22;;;;;;;11.88;4.20;;;8.90;99.90;;;;;;5057281;28;20392;-83
2022/04/09 08:26:47;;;;;;;12.85;3.85;;;8.50;99.90;;;;;;5082359;28;20404;-83
2022/04/09 08:29:18;;;;;;;10.00;3.93;;;8.60;99.90;;;;;;5092777;28;20386;-83
2022/04/09 08:31:47;;;;;;;11.40;4.72;;;8.50;99.90;;;;;;5111063;28;20815;-83
2022/04/09 08:34:14;;;;;;;11.50;3.77;;;8.50;99.90;;;;;;5092885;28;20555;-82
2022/04/09 08:36:41;;;;;;;9.75;3.97;;;9.40;99.90;;;;;;5107716;27;20460;-82
2022/04/09 08:39:07;;;;;;;11.38;4.13;;;9.30;99.90;;;;;;5111433;27;20395;-83
2022/04/09 08:41:40;;;;;;;8.18;3.47;;;;;;;;;;5125110;27;20380;-83
2022/04/09 08:44:06;;;;;;;10.98;3.80;;;;;;;;;;5109601;27;20386;-83
2022/04/09 08:46:34;;;;;;;6.78;3.10;;;;;;;;;;5129973;27;20392;-83
2022/04/09 08:49:02;;;;;;;8.32;3.50;;;;;;;;;;5130290;27;20377;-83
2022/04/09 08:51:28;;;;;;;9.45;3.85;;;;;;;;;;5130683;27;20548;-82
2022/04/09 08:53:55;;;;;;;7.78;2.90;;;;;;;;;;5105762;27;20420;-83
2022/04/09 08:56:21;;;;;;;8.00;3.37;;;;;;;;;;5111029;27;20455;-84
2022/04/09 08:58:47;;;;;;;7.27;3.23;;;;;;;;;;5129246;27;20787;-83
2022/04/09 09:01:14;;;;;;;7.88;3.10;;;;;;;;;;5130535;27;20357;-82
2022/04/09 09:03:40;;;;;;;9.13;3.00;;;;;;;;;;5129926;27;20430;-83
2022/04/09 09:06:29;;;;;;;9.40;3.45;;;10.30;99.90;;;;;;5129868;27;20365;-82
2022/04/09 09:09:00;;;;;;;9.23;3.10;;;10.30;99.90;;;;;;5106472;27;20373;-83
2022/04/09 09:11:27;;;;;;;7.70;3.58;;;10.20;99.90;;;;;;5109575;27;20838;-84
2022/04/09 09:14:23;;;;;;;8.53;3.17;;;10.30;99.90;;;;;;5106369;27;21108;-86
2022/04/09 09:16:49;;;;;;;10.82;2.90;;;10.70;99.90;;;;;;5108521;28;20402;-81
2022/04/09 09:19:20;;;;;;;10.55;2.72;;;10.80;99.90;;;;;;5130522;27;20373;-82
2022/04/09 09:22:38;;;;;;;7.85;2.83;;;10.60;99.90;;;;;;5104653;28;20444;-85
2022/04/09 09:25:07;;;;;;;9.60;3.30;;;10.70;99.90;;;;;;5121570;27;20396;-83
2022/04/09 09:27:33;;;;;;;7.75;2.78;;;10.50;99.90;;;;;;5111248;28;20385;-83
2022/04/09 09:30:13;;;;;;;7.28;2.80;;;10.60;99.90;;;;;;5112953;28;20731;-83
2022/04/09 09:33:02;;;;;;;6.28;2.80;;;;;;;;;;5106697;28;20405;-83
2022/04/09 09:35:49;;;;;;;9.35;2.70;;;;;;;;;;5110526;28;20376;-84
2022/04/09 09:38:23;;;;;;;9.55;2.95;;;;;;;;;;5111513;28;20392;-83
2022/04/09 09:40:49;;;;;;;6.10;2.50;;;;;;;;;;5108550;27;20381;-83
2022/04/09 09:43:20;;;;;;;7.43;3.00;;;;;;;;;;5129739;27;20365;-82
2022/04/09 09:45:46;;;;;;;6.72;2.92;;;;;;;;;;5101981;28;20727;-83
2022/04/09 09:48:35;;;;;;;8.18;2.88;;;10.10;98.40;;;;;;5117573;27;20394;-84
2022/04/09 09:51:03;;;;;;;8.70;3.03;;;10.30;99.30;;;;;;5125293;27;21973;-83
2022/04/09 09:53:33;;;;;;;9.05;3.47;;;10.50;99.90;;;;;;5114535;27;20787;-83
2022/04/09 09:56:03;;;;;;;6.85;2.60;;;10.60;98.50;;;;;;5110914;27;20380;-82
2022/04/09 09:58:30;;;;;;;8.30;2.63;;;10.60;98.20;;;;;;5131381;27;20377;-84
2022/04/09 10:00:56;;;;;;;7.85;2.78;;;10.40;98.80;;;;;;5111857;27;20838;-83
2022/04/09 10:03:23;;;;;;;9.15;3.10;;;10.20;98.30;;;;;;5129328;27;20451;-83
2022/04/09 10:05:50;;;;;;;6.43;2.88;;;10.20;99.90;;;;;;5118171;27;20381;-82
2022/04/09 10:08:20;;;;;;;6.30;2.90;;;10.60;99.90;;;;;;5118380;27;20465;-84
2022/04/09 10:10:50;;;;;;;7.87;2.97;;;10.90;99.00;;;;;;5115061;27;20915;-83
2022/04/09 10:13:24;;;;;;;7.22;2.80;;;10.90;98.20;;;;;;5128705;27;20499;-83
2022/04/09 10:15:52;;;;;;;7.33;2.30;;;10.90;99.60;;;;;;5134056;27;20381;-83
2022/04/09 10:18:23;;;;;;;9.20;2.83;;;;;;;;;;5131365;27;21230;-84
2022/04/09 10:21:00;;;;;;;9.40;2.55;;;;;;;;;;5106099;27;20453;-84
2022/04/09 10:23:32;;;;;;;4.65;2.17;;;;;;;;;;5129853;27;20408;-82
2022/04/09 10:25:59;;;;;;;5.57;2.33;;;;;;;;;;5113962;27;20719;-82
2022/04/09 10:28:32;;;;;;;5.53;2.42;;;;;;;;;;5114426;27;20886;-82
2022/04/09 10:30:58;;;;;;;5.70;2.22;;;;;;;;;;5129548;27;20366;-83
2022/04/09 10:33:29;;;;;;;6.50;2.47;;;;;;;;;;5130763;27;20401;-84
2022/04/09 10:36:01;;;;;;;7.07;2.35;;;;;;;;;;5108289;27;20373;-81
2022/04/09 10:38:27;;;;;;;7.95;2.28;;;11.00;98.50;;;;;;5105828;27;20392;-84
2022/04/09 10:40:55;;;;;;;7.82;2.60;;;11.10;98.30;;;;;;5134884;27;20402;-82
2022/04/09 10:43:27;;;;;;;8.90;2.30;;;11.10;98.20;;;;;;5117539;27;20401;-82
2022/04/09 10:46:06;;;;;;;5.97;2.50;;;10.90;98.20;;;;;;5118893;27;20373;-82
2022/04/09 10:48:40;;;;;;;4.60;2.03;;;10.90;99.40;;;;;;5117006;27;20432;-83
2022/04/09 10:51:08;;;;;;;6.47;2.25;;;11.30;99.90;;;;;;5095750;27;20396;-83
2022/04/09 10:53:43;;;;;;;6.20;2.00;;;11.60;98.10;;;;;;5111444;27;21373;-82
2022/04/09 10:56:20;;;;;;;6.20;1.98;;;11.60;97.50;;;;;;5128752;27;20705;-84
2022/04/09 10:59:16;;;;;;;5.15;1.92;;;11.40;97.10;;;;;;5099910;27;20456;-83
2022/04/09 11:01:48;;;;;;;5.97;2.05;;;11.30;96.50;;;;;;5107830;27;20471;-83
2022/04/09 11:04:32;;;;;;;6.10;2.08;;;11.10;96.90;;;;;;5130992;27;20389;-83
2022/04/09 11:07:32;;;;;;;8.95;2.13;;;11.00;98.10;;;;;;5124503;27;20841;-83
2022/04/09 11:10:02;;;;;;;6.40;2.03;;;11.10;98.20;;;;;;5106449;27;20496;-83
2022/04/09 11:12:42;;;;;;;5.15;1.80;;;11.20;98.30;;;;;;5114294;27;20411;-82
2022/04/09 11:15:29;;;;;;;5.53;2.10;;;10.90;96.40;;;;;;5129602;27;20878;-82
2022/04/09 11:18:03;;;;;;;6.10;1.90;;;10.70;96.80;;;;;;5108352;27;20396;-83
2022/04/09 11:20:38;;;;;;;6.60;2.30;;;10.50;96.70;;;;;;5113273;27;20377;-83
2022/04/09 11:23:12;;;;;;;5.63;2.00;;;10.10;96.90;;;;;;5113053;27;20373;-81
2022/04/09 11:25:46;;;;;;;4.22;1.95;;;10.20;98.10;;;;;;5116060;27;20376;-82
2022/04/09 11:28:19;;;;;;;8.97;2.13;;;10.20;99.40;;;;;;5116824;27;20443;-81
2022/04/09 11:30:58;;;;;;;3.63;1.70;;;10.60;99.90;;;;;;5116092;27;20377;-82
2022/04/09 11:33:24;;;;;;;4.45;1.52;;;11.00;99.90;;;;;;5112462;27;20404;-81
2022/04/09 11:35:50;;;;;;;3.72;1.77;;;11.00;99.90;;;;;;5135923;27;20379;-81
2022/04/09 11:38:16;;;;;;;4.10;1.63;;;11.20;99.60;;;;;;5133967;27;20425;-82
2022/04/09 11:40:48;;;;;;;3.78;1.75;;;11.10;99.20;;;;;;5114767;27;20492;-82
2022/04/09 11:43:15;;;;;;;4.68;1.85;;;10.90;99.50;;;;;;5131005;27;20392;-82
2022/04/09 11:45:42;;;;;;;3.90;1.50;;;10.90;99.90;;;;;;5113839;27;20373;-81
2022/04/09 11:48:22;;;;;;;4.70;1.45;;;11.00;99.90;;;;;;5132462;27;20444;-83
2022/04/09 11:50:49;;;;;;;4.53;1.77;;;11.00;99.90;;;;;;5123549;27;20437;-82
2022/04/09 11:53:20;;;;;;;4.78;1.80;;;11.20;99.90;;;;;;5133461;27;20393;-82
2022/04/09 11:55:48;;;;;;;4.47;1.70;;;11.30;99.50;;;;;;5108507;27;20376;-82
2022/04/09 11:58:15;;;;;;;5.70;1.55;;;11.50;98.90;;;;;;5113278;27;20400;-82
2022/04/09 12:00:47;;;;;;;6.13;1.80;;;11.60;99.20;;;;;;5114973;27;20365;-82
2022/04/09 12:03:14;;;;;;;5.70;2.00;;;11.70;98.60;;;;;;5108901;27;20385;-81
2022/04/09 12:05:51;;;;;;;5.30;1.67;;;11.90;99.30;;;;;;5123725;27;20373;-81
2022/04/09 12:08:19;;;;;;;5.65;1.83;;;12.10;98.80;;;;;;5127506;27;20388;-82
2022/04/09 12:10:55;;;;;;;5.87;1.90;;;12.00;98.40;;;;;;5108354;27;20740;-82
2022/04/09 12:13:28;;;;;;;3.78;1.75;;;11.60;98.50;;;;;;5118311;27;20396;-83
2022/04/09 12:16:12;;;;;;;4.63;1.58;;;11.50;98.70;;;;;;5116918;27;20436;-80
2022/04/09 12:18:39;;;;;;;3.38;1.35;;;;;;;;;;5101592;27;20373;-82
2022/04/09 12:21:18;;;;;;;3.03;1.40;;;;;;;;;;5118475;27;20385;-82
2022/04/09 12:23:46;;;;;;;3.13;1.20;;;;;;;;;;5079468;28;20398;-83
2022/04/09 12:26:25;;;;;;;3.30;1.40;;;;;;;;;;5097448;28;20366;-82
2022/04/09 12:29:11;;;;;;;3.83;1.70;;;;;;;;;;5099621;27;21356;-82
2022/04/09 12:31:37;;;;;;;3.73;1.47;;;;;;;;;;5084602;28;21034;-81
2022/04/09 12:34:04;;;;;;;3.13;1.42;;;;;;;;;;5101605;28;20375;-81
2022/04/09 12:36:31;;;;;;;3.70;1.50;;;;;;;;;;5115496;27;20368;-81
2022/04/09 12:38:57;;;;;;;2.90;1.35;;;;;;;;;;5126506;27;20391;-81
2022/04/09 12:41:23;;;;;;;2.53;1.02;;;;;;;;;;5093798;28;20418;-81
2022/04/09 12:43:52;;;;;;;3.50;1.00;;;;;;;;;;5107572;28;20370;-81
2022/04/09 12:46:19;;;;;;;2.58;0.98;;;;;;;;;;5109432;28;20366;-82
2022/04/09 12:48:46;;;;;;;2.78;1.10;;;;;;;;;;5088350;28;20399;-83
2022/04/09 12:51:20;;;;;;;2.38;1.00;;;;;;;;;;5085949;27;20382;-81
2022/04/09 12:53:51;;;;;;;2.03;1.00;;;;;;;;;;5118617;27;20381;-82
2022/04/09 12:56:18;;;;;;;1.48;0.90;;;;;;;;;;5127263;27;20849;-81
2022/04/09 12:58:45;;;;;;;2.17;0.98;;;;;;;;;;5107406;27;20945;-82
2022/04/09 13:01:17;;;;;;;1.65;0.80;;;;;;;;;;5106635;27;20950;-82
2022/04/09 13:03:43;;;;;;;1.20;1.00;;;;;;;;;;5117475;27;20387;-82
2022/04/09 13:06:10;;;;;;;1.95;0.80;;;;;;;;;;5108800;27;20391;-83
2022/04/09 13:08:36;;;;;;;1.55;0.80;;;;;;;;;;5121571;27;20371;-82
2022/04/09 13:11:05;;;;;;;2.70;0.98;;;;;;;;;;5086808;28;20383;-81